Time;durP1;ratioP1;P1;durP2;ratioP2;P2;SDS_P1;SDS_P2;PMS_P1;PMS_P2;Temp;Humidity;BMP_temperature;BMP_pressure;BME280_temperature;BME280_humidity;BME280_pressure;Samples;Min_cycle;Max_cycle;Signal;HPM_P1;HPM_P2
2022/04/14 00:01:43;;;;;;;38.78;21.80;;;;;;;2.52;72.33;97993.59;10337298;28;20451;-60
2022/04/14 00:06:42;;;;;;;41.17;21.88;;;;;;;2.88;72.89;98067.41;10337863;28;20096;-60
2022/04/14 00:11:41;;;;;;;37.80;22.98;;;;;;;3.00;72.91;98080.69;10336076;28;20041;-61
2022/04/14 00:16:40;;;;;;;28.63;18.38;;;;;;;2.70;72.79;98026.69;10336593;28;20072;-60
2022/04/14 00:21:39;;;;;;;33.17;17.77;;;;;;;2.82;73.42;98067.22;10336497;28;20041;-61
2022/04/14 00:26:38;;;;;;;29.27;17.30;;;;;;;2.84;73.41;98096.34;10335926;28;20067;-61
2022/04/14 00:31:37;;;;;;;24.67;15.80;;;;;;;1.97;73.26;97960.94;10336149;28;20034;-60
2022/04/14 00:36:36;;;;;;;27.05;15.95;;;;;;;2.74;73.67;98104.50;10335723;28;20065;-60
2022/04/14 00:41:38;;;;;;;26.65;16.67;;;;;;;2.66;73.52;98108.50;10335786;28;20039;-60
2022/04/14 00:46:37;;;;;;;35.17;23.73;;;;;;;2.27;73.35;98053.31;10335336;28;20059;-60
2022/04/14 00:51:36;;;;;;;37.38;21.17;;;;;;;2.11;73.44;98034.00;10335157;28;20052;-60
2022/04/14 00:56:35;;;;;;;35.47;23.52;;;;;;;2.37;73.67;98095.50;10334098;28;20068;-60
2022/04/14 01:01:34;;;;;;;46.55;33.45;;;;;;;2.44;74.30;98111.97;10334942;28;20069;-60
2022/04/14 01:06:33;;;;;;;36.35;27.15;;;;;;;2.35;74.63;98107.41;10334864;28;20057;-60
2022/04/14 01:11:34;;;;;;;29.23;17.85;;;;;;;2.25;74.54;98100.19;10334199;28;20064;-60
2022/04/14 01:16:33;;;;;;;42.63;28.02;;;;;;;1.27;74.46;97939.59;10333974;28;20069;-60
2022/04/14 01:21:33;;;;;;;34.30;20.98;;;;;;;1.38;74.94;97972.38;10334100;28;20108;-60
2022/04/14 01:26:36;;;;;;;25.77;16.00;;;;;;;2.12;74.60;98112.53;10333747;28;20060;-60
2022/04/14 01:31:35;;;;;;;33.55;19.10;;;;;;;1.83;74.82;98067.03;10333966;28;20061;-60
2022/04/14 01:36:34;;;;;;;26.70;16.48;;;;;;;1.77;75.15;98074.50;10333720;28;20463;-60
2022/04/14 01:41:33;;;;;;;28.08;16.48;;;;;;;1.98;75.23;98121.38;10333230;28;20033;-61
2022/04/14 01:46:32;;;;;;;24.30;15.20;;;;;;;1.96;75.82;98117.88;10333100;28;20032;-60
2022/04/14 01:51:31;;;;;;;;;;;;;;;1.92;75.36;98110.88;10333320;28;20091;-60
2022/04/14 01:56:30;;;;;;;28.00;15.80;;;;;;;1.90;75.64;98112.50;10332750;28;19913;-61
2022/04/14 02:01:29;;;;;;;21.77;15.23;;;;;;;1.86;75.29;98116.66;10332412;28;20061;-60
2022/04/14 02:06:31;;;;;;;20.60;13.63;;;;;;;1.78;75.43;98112.03;10332690;28;20061;-60
2022/04/14 02:11:30;;;;;;;27.35;17.55;;;;;;;1.68;75.36;98111.66;10332043;28;20057;-60
2022/04/14 02:16:29;;;;;;;25.52;16.63;;;;;;;1.45;76.50;98103.06;10331631;28;20033;-60
2022/04/14 02:21:28;;;;;;;31.45;19.50;;;;;;;1.15;76.50;98043.91;10331076;28;20061;-60
2022/04/14 02:26:28;;;;;;;32.03;18.02;;;;;;;1.54;76.97;98126.47;10331425;28;20067;-60
2022/04/14 02:31:27;;;;;;;35.33;21.42;;;;;;;1.52;77.13;98119.53;10331310;28;20061;-60
2022/04/14 02:36:26;;;;;;;33.17;19.48;;;;;;;1.35;77.42;98089.88;10332193;28;20039;-60
2022/04/14 02:41:25;;;;;;;33.65;18.23;;;;;;;1.22;77.62;98068.91;10330829;28;20033;-60
2022/04/14 02:46:24;;;;;;;35.45;18.67;;;;;;;1.02;77.50;98028.91;10331032;28;20442;-60
2022/04/14 02:51:22;;;;;;;33.95;20.50;;;;;;;1.25;77.39;98081.84;10330899;28;20050;-60
2022/04/14 02:56:22;;;;;;;32.22;19.92;;;;;;;1.06;78.04;98062.31;10329318;28;20140;-60
2022/04/14 03:01:20;;;;;;;35.63;19.58;;;;;;;1.27;78.22;98108.34;10330611;28;20060;-60
2022/04/14 03:06:19;;;;;;;30.88;19.20;;;;;;;0.25;78.04;97949.09;10330469;28;20108;-60
2022/04/14 03:11:18;;;;;;;32.90;20.60;;;;;;;1.18;78.05;98117.28;10330675;28;20108;-60
2022/04/14 03:16:17;;;;;;;38.85;20.88;;;;;;;1.11;78.20;98123.84;10330064;28;20531;-61
2022/04/14 03:21:16;;;;;;;34.70;20.27;;;;;;;0.62;78.01;98047.69;10329965;28;20484;-60
2022/04/14 03:26:16;;;;;;;33.17;19.58;;;;;;;0.69;78.02;98055.66;10330347;28;20444;-60
2022/04/14 03:31:15;;;;;;;34.83;21.17;;;;;;;0.76;78.00;98061.03;10331433;28;20060;-60
2022/04/14 03:36:14;;;;;;;31.92;18.67;;;;;;;1.06;77.85;98117.63;10337503;28;20098;-60
2022/04/14 03:41:13;;;;;;;50.03;29.30;;;;;;;0.66;78.11;98059.75;10337856;28;20029;-60
2022/04/14 03:46:14;;;;;;;70.70;41.38;;;;;;;1.05;79.03;98131.25;10337859;28;20040;-60
2022/04/14 03:51:14;;;;;;;46.75;29.05;;;;;;;0.80;79.25;98124.19;10337065;28;20547;-60
2022/04/14 03:56:13;;;;;;;39.88;26.40;;;;;;;0.77;79.24;98130.06;10337394;28;20156;-60
2022/04/14 04:01:12;;;;;;;31.80;18.40;;;;;;;0.71;79.32;98127.25;10336725;28;20133;-60
2022/04/14 04:06:11;;;;;;;29.95;17.65;;;;;;;0.60;79.44;98121.66;10336659;28;20136;-60
2022/04/14 04:11:10;;;;;;;45.17;21.38;;;;;;;-0.16;79.41;97996.63;10337064;28;20040;-60
2022/04/14 04:16:10;;;;;;;35.33;21.33;;;;;;;0.70;79.75;98163.81;10336284;28;20419;-60
2022/04/14 04:21:09;;;;;;;38.00;23.80;;;;;;;0.43;79.58;98118.38;10335788;28;20070;-61
2022/04/14 04:26:08;;;;;;;51.35;24.40;;;;;;;0.72;80.03;98167.31;10336331;28;20026;-61
2022/04/14 04:31:06;;;;;;;39.00;24.30;;;;;;;0.47;79.94;98116.81;10335401;28;20032;-61
2022/04/14 04:36:07;;;;;;;30.75;18.92;;;;;;;0.62;79.51;98144.72;10335620;28;20025;-61
2022/04/14 04:41:06;;;;;;;30.80;20.25;;;;;;;1.00;79.57;98192.38;10330258;28;20068;-60
2022/04/14 04:46:05;;;;;;;35.25;16.90;;;;;;;1.15;79.16;98199.81;10333407;28;20032;-61
2022/04/14 04:51:04;;;;;;;34.15;18.65;;;;;;;1.26;79.54;98196.03;10335123;28;20119;-61
2022/04/14 04:56:03;;;;;;;31.98;19.58;;;;;;;0.77;79.31;98099.41;10335275;28;20129;-61
2022/04/14 05:01:02;;;;;;;41.10;22.17;;;;;;;1.58;79.59;98209.31;10334191;28;20086;-61
2022/04/14 05:06:02;;;;;;;42.28;24.25;;;;;;;1.79;79.00;98195.69;10332518;28;20069;-61
2022/04/14 05:11:01;;;;;;;41.88;24.80;;;;;;;2.07;78.83;98195.09;10334506;28;20060;-62
2022/04/14 05:16:02;;;;;;;43.15;25.92;;;;;;;2.31;78.76;98202.84;10333475;28;20104;-61
2022/04/14 05:21:01;;;;;;;47.17;28.33;;;;;;;2.49;77.74;98208.69;10333552;28;20080;-61
2022/04/14 05:26:00;;;;;;;;;;;;;;;2.66;77.36;98203.31;10333754;28;20067;-61
2022/04/14 05:31:00;;;;;;;46.35;27.80;;;;;;;2.87;76.82;98206.66;10333717;28;19909;-62
2022/04/14 05:35:58;;;;;;;50.03;31.40;;;;;;;3.10;76.67;98214.31;10327943;28;20140;-61
2022/04/14 05:40:58;;;;;;;61.15;37.40;;;;;;;3.14;75.78;98185.38;10331485;28;20025;-62
2022/04/14 05:45:59;;;;;;;58.67;38.85;;;;;;;3.34;74.91;98169.00;10331653;28;20076;-61
2022/04/14 05:50:58;;;;;;;51.22;35.40;;;;;;;3.67;74.28;98186.34;10330950;28;20095;-61
2022/04/14 05:55:57;;;;;;;51.95;32.05;;;;;;;4.15;72.94;98209.31;10328432;28;20037;-61
2022/04/14 06:00:56;;;;;;;42.22;26.98;;;;;;;4.36;71.70;98210.78;10327462;28;20068;-61
2022/04/14 06:05:56;;;;;;;41.33;27.50;;;;;;;4.48;70.26;98172.63;10328758;28;20053;-61
2022/04/14 06:10:55;;;;;;;40.28;22.70;;;;;;;4.81;68.69;98182.16;10329492;28;20025;-61
2022/04/14 06:15:54;;;;;;;45.58;26.67;;;;;;;5.10;67.75;98203.56;10330892;28;20072;-61
2022/04/14 06:20:54;;;;;;;36.92;25.30;;;;;;;5.40;66.74;98211.25;10331550;28;20061;-61
2022/04/14 06:25:54;;;;;;;31.95;21.48;;;;;;;5.31;65.46;98159.53;10331608;28;20069;-61
2022/04/14 06:30:53;;;;;;;29.55;20.55;;;;;;;5.46;63.87;98154.78;10331061;28;20068;-62
2022/04/14 06:35:52;;;;;;;32.38;21.48;;;;;;;5.86;63.08;98188.38;10327669;28;20029;-62
2022/04/14 06:40:51;;;;;;;28.30;20.02;;;;;;;6.31;63.35;98205.78;10329680;28;20029;-61
2022/04/14 06:45:50;;;;;;;24.27;17.63;;;;;;;6.36;62.26;98158.63;10330389;28;20541;-62
2022/04/14 06:50:49;;;;;;;;;;;;;;;6.94;61.82;98202.84;10329984;28;20519;-62
2022/04/14 06:55:49;;;;;;;29.00;17.73;;;;;;;7.12;60.69;98204.06;10329733;28;20394;-61
2022/04/14 07:00:48;;;;;;;29.02;17.15;;;;;;;7.57;60.19;98204.09;10330011;28;20061;-61
2022/04/14 07:05:47;;;;;;;22.25;15.02;;;;;;;7.81;58.56;98201.06;10327564;28;20028;-62
2022/04/14 07:10:46;;;;;;;20.00;14.70;;;;;;;7.84;56.77;98162.34;10312742;28;20615;-62
2022/04/14 07:15:45;;;;;;;20.67;14.48;;;;;;;8.50;56.02;98202.19;10316578;28;20036;-61
2022/04/14 07:20:46;;;;;;;18.60;12.70;;;;;;;8.42;54.40;98146.88;10328291;28;20065;-61
2022/04/14 07:25:46;;;;;;;20.45;13.25;;;;;;;9.04;54.26;98197.69;10320691;28;20531;-61
2022/04/14 07:30:45;;;;;;;19.52;12.68;;;;;;;6.85;51.65;97783.94;10311066;28;20056;-61
2022/04/14 07:35:45;;;;;;;19.27;12.88;;;;;;;9.52;50.95;98182.72;10344332;28;20072;-62
2022/04/14 07:40:44;;;;;;;16.17;11.65;;;;;;;9.70;49.56;98167.34;10329507;28;20065;-62
2022/04/14 07:45:45;;;;;;;21.08;11.75;;;;;;;10.19;47.45;98188.50;10329431;28;20095;-62
2022/04/14 07:50:44;;;;;;;15.88;10.15;;;;;;;10.36;47.04;98173.03;10323800;28;20085;-62
2022/04/14 07:55:43;;;;;;;14.40;10.05;;;;;;;10.50;45.74;98159.31;10329584;28;20103;-63
2022/04/14 08:00:42;;;;;;;20.00;9.05;;;;;;;10.58;46.03;98111.75;10329290;28;20044;-62
2022/04/14 08:05:43;;;;;;;14.57;7.68;;;;;;;11.36;43.51;98175.25;10328809;28;20495;-62
2022/04/14 08:10:44;;;;;;;13.90;7.13;;;;;;;11.50;44.60;98136.31;10329234;28;20597;-62
2022/04/14 08:15:44;;;;;;;11.10;6.05;;;;;;;12.03;44.41;98171.88;10328714;28;20484;-62
2022/04/14 08:20:43;;;;;;;10.32;5.47;;;;;;;12.26;43.23;98175.31;10334534;28;20073;-62
2022/04/14 08:25:42;;;;;;;6.05;4.18;;;;;;;12.19;41.97;98111.16;10335815;28;20069;-62
2022/04/14 08:30:42;;;;;;;8.00;4.70;;;;;;;13.00;41.72;98169.97;10320006;28;20060;-62
2022/04/14 08:35:42;;;;;;;6.53;4.20;;;;;;;13.14;40.76;98149.03;10305789;28;20091;-62
2022/04/14 08:40:41;;;;;;;8.25;4.10;;;;;;;13.38;38.90;98166.31;10335369;28;20068;-62
2022/04/14 08:45:46;;;;;;;6.60;3.80;;;;;;;13.78;37.62;98155.66;10335848;28;20087;-62
2022/04/14 08:50:46;;;;;;;8.07;3.88;;;;;;;14.15;35.11;98153.63;10333551;28;20103;-62
2022/04/14 08:55:46;;;;;;;5.03;3.40;;;;;;;14.36;34.38;98129.06;10334615;28;20522;-62
2022/04/14 09:00:45;;;;;;;9.10;3.95;;;;;;;14.48;34.24;98075.84;10334720;28;20072;-62
2022/04/14 09:05:45;;;;;;;6.80;3.65;;;;;;;14.97;32.46;98111.84;10334200;28;20067;-62
2022/04/14 09:10:44;;;;;;;6.75;3.92;;;;;;;15.32;32.34;98120.06;10334361;28;20065;-62
2022/04/14 09:15:43;;;;;;;8.85;3.97;;;;;;;15.33;31.66;98077.38;10333743;28;20044;-62
2022/04/14 09:20:42;;;;;;;6.75;3.70;;;;;;;15.82;30.17;98108.03;10333865;28;20040;-62
2022/04/14 09:25:42;;;;;;;5.05;3.55;;;;;;;15.90;27.11;98105.28;10333497;28;20474;-62
2022/04/14 09:31:04;;;;;;;7.10;3.97;;;;;;;16.17;28.55;98094.31;10333462;28;20065;-62
2022/04/14 09:36:08;;;;;;;7.13;3.83;;;;;;;15.65;26.45;98035.00;10332068;28;20099;-62
2022/04/14 09:41:31;;;;;;;7.90;4.38;;;;;;;16.10;27.77;98087.47;10333072;28;20068;-62
2022/04/14 09:46:30;;;;;;;6.30;3.45;;;;;;;15.98;26.02;98045.81;10311612;28;20512;-62
2022/04/14 09:51:30;;;;;;;8.82;3.60;;;;;;;15.81;26.76;98005.09;10329962;28;20077;-62
2022/04/14 09:56:51;;;;;;;6.85;2.90;;;;;;;16.21;26.08;98085.53;10331813;28;20056;-62
2022/04/14 10:02:17;;;;;;;5.35;3.15;;;;;;;16.43;25.18;98070.25;10332227;28;20477;-62
2022/04/14 10:07:17;;;;;;;4.10;3.38;;;;;;;16.61;25.18;98074.28;10326615;28;20091;-62
2022/04/14 10:12:19;;;;;;;5.22;2.97;;;;;;;16.66;24.37;98074.19;10331870;28;20065;-62
2022/04/14 10:17:20;;;;;;;5.85;2.80;;;;;;;16.90;22.98;98070.22;10328384;28;20404;-62
2022/04/14 10:22:19;;;;;;;4.90;3.05;;;;;;;16.74;22.64;98053.91;10331398;28;20064;-62
2022/04/14 10:27:20;;;;;;;4.32;2.40;;;;;;;16.83;21.33;98060.75;10331327;28;20061;-62
2022/04/14 10:32:21;;;;;;;4.15;2.90;;;;;;;16.94;22.20;98040.44;10330678;28;20502;-62
2022/04/14 10:37:26;;;;;;;4.40;2.88;;;;;;;17.20;22.16;98047.69;10331330;28;20057;-62
2022/04/14 10:42:27;;;;;;;4.53;2.90;;;;;;;17.38;21.84;98056.03;10329662;28;20330;-62
2022/04/14 10:47:58;;;;;;;4.10;2.55;;;;;;;17.16;21.63;97998.00;10326602;28;20049;-63
2022/04/14 10:53:18;;;;;;;5.00;2.47;;;;;;;17.74;20.52;98055.16;10329435;28;20089;-62
2022/04/14 10:58:26;;;;;;;4.45;2.28;;;;;;;17.70;20.80;98058.75;10329069;28;20136;-62
2022/04/14 11:03:48;;;;;;;3.95;2.58;;;;;;;17.92;20.04;98055.63;10328824;28;20130;-62
2022/04/14 11:08:47;;;;;;;2.25;1.88;;;;;;;18.03;18.18;98050.94;10330526;28;20360;-62
2022/04/14 11:13:52;;;;;;;4.13;2.20;;;;;;;18.03;17.87;98053.56;10329758;28;20265;-62
2022/04/14 11:19:16;;;;;;;5.50;2.28;;;;;;;18.31;19.14;98050.19;10329857;28;20069;-62
2022/04/14 11:24:15;;;;;;;5.32;2.40;;;;;;;18.46;18.21;98044.53;10328670;28;20068;-61
2022/04/14 11:29:14;;;;;;;4.00;2.50;;;;;;;18.36;20.18;97986.13;10330225;28;20022;-62
2022/04/14 11:34:30;;;;;;;5.72;2.70;;;;;;;18.52;18.56;98039.09;10329743;28;20076;-60
2022/04/14 11:39:30;;;;;;;5.25;2.72;;;;;;;18.57;21.16;98037.22;10329178;28;20068;-60
2022/04/14 11:44:32;;;;;;;3.83;2.70;;;;;;;18.10;22.21;97931.69;10329791;28;20061;-60
2022/04/14 11:49:33;;;;;;;3.72;2.10;;;;;;;18.57;21.59;97992.53;10329230;28;20586;-62
2022/04/14 11:54:35;;;;;;;3.97;2.58;;;;;;;18.94;22.32;98028.25;10330922;28;20073;-62
2022/04/14 11:59:35;;;;;;;7.80;3.13;;;;;;;18.51;21.47;97948.03;10336770;28;20495;-62
2022/04/14 12:04:43;;;;;;;5.18;2.90;;;;;;;18.84;22.44;97984.75;10335918;28;20546;-61
2022/04/14 12:09:42;;;;;;;6.38;3.15;;;;;;;19.39;21.84;98016.34;10335431;28;20065;-62
2022/04/14 12:14:50;;;;;;;4.45;2.65;;;;;;;19.78;22.91;98018.59;10336065;28;20099;-61
2022/04/14 12:19:59;;;;;;;4.47;2.60;;;;;;;20.09;23.55;98013.13;10335268;28;20065;-62
2022/04/14 12:25:00;;;;;;;9.05;3.20;;;;;;;20.19;21.44;98014.53;10336067;28;20561;-62
2022/04/14 12:30:09;;;;;;;6.45;2.88;;;;;;;19.74;20.86;98007.28;10335597;28;20057;-62
2022/04/14 12:35:09;;;;;;;3.30;2.40;;;;;;;19.68;20.42;98002.25;10336210;28;20064;-62
2022/04/14 12:40:08;;;;;;;10.93;4.22;;;;;;;19.42;20.93;98003.09;10335385;28;20064;-62
2022/04/14 12:45:13;;;;;;;4.75;2.17;;;;;;;19.58;21.51;97995.56;10335693;28;20072;-62
2022/04/14 12:50:18;;;;;;;4.60;2.40;;;;;;;19.05;20.51;97890.31;10335248;28;20621;-62
2022/04/14 12:55:25;;;;;;;3.30;2.47;;;;;;;19.64;20.05;97982.19;10333573;28;20512;-62
2022/04/14 13:00:25;;;;;;;4.75;2.80;;;;;;;19.76;20.83;97976.50;10334292;28;20072;-62
2022/04/14 13:05:27;;;;;;;5.47;3.08;;;;;;;19.47;20.89;97916.09;10334653;28;20064;-62
2022/04/14 13:10:34;;;;;;;3.50;2.60;;;;;;;19.61;20.78;97922.63;10334506;28;20064;-60
2022/04/14 13:15:34;;;;;;;2.83;2.20;;;;;;;19.82;20.98;97968.41;10334152;28;20531;-62
2022/04/14 13:20:40;;;;;;;6.75;2.80;;;;;;;19.93;21.16;97969.78;10334216;28;20065;-62
2022/04/14 13:25:39;;;;;;;4.15;2.85;;;;;;;19.99;20.74;97961.69;10334016;28;20061;-62
2022/04/14 13:30:39;;;;;;;4.38;2.42;;;;;;;19.68;20.52;97927.69;10334622;28;20499;-62
2022/04/14 13:35:38;;;;;;;3.83;2.63;;;;;;;20.01;20.31;97970.41;10333388;28;20061;-62
2022/04/14 13:40:36;;;;;;;4.05;2.58;;;;;;;19.82;19.93;97942.06;10333401;28;20095;-62
2022/04/14 13:45:35;;;;;;;4.07;2.83;;;;;;;20.04;20.48;97951.84;10334392;28;20140;-62
2022/04/14 13:50:35;;;;;;;4.05;2.45;;;;;;;19.98;21.21;97958.19;10332730;28;20120;-62
2022/04/14 13:55:36;;;;;;;3.28;2.40;;;;;;;19.84;21.01;97919.19;10333254;28;20526;-62
2022/04/14 14:00:35;;;;;;;6.40;2.38;;;;;;;19.82;21.21;97936.81;10332361;28;20491;-62
2022/04/14 14:05:35;;;;;;;5.45;2.90;;;;;;;19.92;22.66;97971.56;10332910;28;20069;-60
2022/04/14 14:10:34;;;;;;;2.78;2.38;;;;;;;19.93;23.11;97972.44;10333016;28;20064;-62
2022/04/14 14:15:33;;;;;;;4.43;2.45;;;;;;;19.65;23.43;97947.94;10331968;28;20374;-62
2022/04/14 14:20:34;;;;;;;4.63;2.80;;;;;;;19.64;22.77;97987.47;10331637;28;20294;-61
2022/04/14 14:25:36;;;;;;;3.10;2.53;;;;;;;19.30;23.75;97954.34;10331940;28;20163;-61
2022/04/14 14:30:35;;;;;;;6.43;2.72;;;;;;;19.48;23.70;97986.22;10332072;28;20084;-62
2022/04/14 14:35:35;;;;;;;3.97;2.65;;;;;;;19.15;24.64;97986.41;10331185;28;20479;-61
2022/04/14 14:40:34;;;;;;;5.32;2.90;;;;;;;18.97;24.32;97956.28;10331462;28;20077;-62
2022/04/14 14:45:33;;;;;;;6.78;2.95;;;;;;;19.17;24.22;97995.97;10331033;28;20073;-62
2022/04/14 14:50:32;;;;;;;5.80;3.08;;;;;;;19.10;24.69;97986.56;10330551;28;20483;-62
2022/04/14 14:55:31;;;;;;;8.13;2.92;;;;;;;19.09;24.04;97994.50;10330886;28;20565;-62
2022/04/14 15:00:30;;;;;;;3.78;2.45;;;;;;;18.92;24.08;97961.69;10330177;28;20483;-62
2022/04/14 15:05:29;;;;;;;4.78;2.97;;;;;;;19.05;24.27;98003.41;10330446;28;20462;-62
2022/04/14 15:10:28;;;;;;;4.95;2.95;;;;;;;18.86;24.65;98011.00;10331113;28;20061;-62
2022/04/14 15:15:28;;;;;;;5.72;3.40;;;;;;;17.95;25.42;97884.88;10330428;28;20458;-62
2022/04/14 15:20:30;;;;;;;5.97;3.88;;;;;;;18.29;25.94;97966.19;10329997;28;20448;-62
2022/04/14 15:25:30;;;;;;;7.40;4.93;;;;;;;18.49;26.37;97997.13;10330520;28;20075;-62
2022/04/14 15:30:29;;;;;;;3.92;2.60;;;;;;;18.08;26.27;97938.78;10337521;28;20065;-62
2022/04/14 15:35:28;;;;;;;5.10;3.45;;;;;;;18.46;25.94;97997.25;10336875;28;20126;-62
2022/04/14 15:40:28;;;;;;;5.60;4.03;;;;;;;18.37;25.99;97977.34;10335786;28;20065;-62
2022/04/14 15:45:27;;;;;;;4.75;3.20;;;;;;;17.85;26.04;97886.06;10335687;28;20075;-62
2022/04/14 15:50:26;;;;;;;6.10;2.88;;;;;;;18.36;26.15;97985.25;10337157;28;20084;-62
2022/04/14 15:55:25;;;;;;;6.57;3.22;;;;;;;18.13;26.83;97967.53;10337777;28;20143;-62
2022/04/14 16:00:24;;;;;;;5.13;3.35;;;;;;;17.91;26.71;97948.88;10337394;28;20061;-62
2022/04/14 16:05:23;;;;;;;8.70;4.40;;;;;;;17.92;27.21;97969.00;10338261;28;20033;-62
2022/04/14 16:15:39;;;;;;;5.93;3.28;;;;;;;17.48;27.94;97931.63;10336738;28;19967;-62
2022/04/14 16:20:38;;;;;;;5.18;3.45;;;;;;;17.48;27.93;97937.72;10336346;28;20491;-62
2022/04/14 16:25:37;;;;;;;;;;;;;;;17.38;28.61;97966.84;10335748;28;20475;-61
2022/04/14 16:30:36;;;;;;;7.73;3.83;;;;;;;17.23;28.83;97958.47;10335611;28;19952;-61
2022/04/14 16:35:35;;;;;;;8.27;3.40;;;;;;;17.04;29.07;97965.06;10330278;28;20068;-61
2022/04/14 16:40:35;;;;;;;;;;;;;;;16.85;29.57;97955.00;10334772;28;20109;-61
2022/04/14 16:45:34;;;;;;;9.25;4.10;;;;;;;16.50;30.25;97940.88;10335652;28;20406;-62
2022/04/14 16:50:34;;;;;;;7.95;4.63;;;;;;;16.06;30.24;97910.41;10334120;28;20085;-61
2022/04/14 16:55:33;;;;;;;9.82;4.60;;;;;;;16.21;30.60;97956.38;10334443;28;20084;-61
2022/04/14 17:00:32;;;;;;;;;;;;;;;16.10;30.83;97977.53;10334073;28;20037;-62
2022/04/14 17:05:31;;;;;;;43.65;25.10;;;;;;;15.94;30.95;97983.94;10334022;28;20008;-63
2022/04/14 17:10:30;;;;;;;89.80;53.90;;;;;;;15.47;31.70;97928.94;10331978;28;20028;-60
2022/04/14 17:15:28;;;;;;;360.20;247.95;;;;;;;15.60;33.32;97985.38;10332662;28;20037;-60
2022/04/14 17:20:27;;;;;;;99.80;70.47;;;;;;;15.40;34.18;97992.69;10325747;28;20041;-61
2022/04/14 17:25:26;;;;;;;45.30;32.22;;;;;;;14.56;35.14;97892.94;10333188;28;20502;-61
2022/04/14 17:30:25;;;;;;;34.67;20.58;;;;;;;14.91;36.06;98004.78;10333926;28;20026;-62
2022/04/14 17:35:24;;;;;;;29.75;18.05;;;;;;;14.27;36.66;97941.19;10333393;28;20059;-62
2022/04/14 17:40:23;;;;;;;32.92;22.85;;;;;;;14.38;36.90;98022.88;10333273;28;20127;-62
2022/04/14 17:45:23;;;;;;;20.83;13.90;;;;;;;13.88;37.86;97989.50;10333304;28;20457;-62
2022/04/14 17:50:22;;;;;;;12.70;8.25;;;;;;;13.90;37.99;98045.13;10332308;28;20073;-62
2022/04/14 17:55:21;;;;;;;10.75;6.45;;;;;;;13.62;38.11;98054.94;10332904;28;20053;-61
2022/04/14 18:00:20;;;;;;;;;;;;;;;13.39;38.68;98062.91;10332847;28;20069;-62
2022/04/14 18:05:19;;;;;;;12.27;6.10;;;;;;;12.80;39.30;98015.53;10332586;28;19936;-61
2022/04/14 18:10:18;;;;;;;9.20;6.45;;;;;;;12.89;39.65;98072.78;10332693;28;20021;-61
2022/04/14 18:15:17;;;;;;;;;;;;;;;12.76;40.49;98086.72;10332163;28;20469;-61
2022/04/14 18:20:16;;;;;;;15.35;8.77;;;;;;;12.46;40.93;98088.56;10330137;28;20408;-61
2022/04/14 18:25:15;;;;;;;;;;;;;;;12.39;41.04;98111.16;10329795;28;20068;-61
2022/04/14 18:30:18;;;;;;;18.05;11.90;;;;;;;12.22;41.60;98121.56;10329165;28;19909;-61
2022/04/14 18:35:18;;;;;;;15.27;11.27;;;;;;;11.99;42.45;98124.19;10329373;28;20076;-61
2022/04/14 18:40:17;;;;;;;18.70;11.57;;;;;;;11.83;43.07;98136.34;10328397;28;20064;-63
2022/04/14 18:45:17;;;;;;;19.20;11.32;;;;;;;11.32;44.04;98069.59;10327927;28;20135;-61
2022/04/14 18:50:16;;;;;;;24.08;11.63;;;;;;;11.51;46.01;98141.50;10329205;28;20069;-61
2022/04/14 18:55:16;;;;;;;;;;;;;;;11.46;45.47;98145.84;10329311;28;20072;-63
2022/04/14 19:00:16;;;;;;;20.42;11.23;;;;;;;11.31;46.59;98145.78;10328318;28;19975;-63
2022/04/14 19:05:16;;;;;;;;;;;;;;;11.14;46.87;98150.94;10328957;28;20065;-61
2022/04/14 19:10:15;;;;;;;;;;;;;;;10.98;47.50;98155.22;10329383;28;19960;-63
2022/04/14 19:15:14;;;;;;;24.65;10.38;;;;;;;10.93;47.47;98162.13;10329025;28;19909;-63
2022/04/14 19:20:13;;;;;;;19.25;11.18;;;;;;;10.68;47.65;98132.56;10328078;28;20519;-61
2022/04/14 19:25:14;;;;;;;24.30;14.32;;;;;;;10.74;47.35;98168.94;10330175;28;20480;-61
2022/04/14 19:30:13;;;;;;;29.20;17.45;;;;;;;10.35;48.27;98121.13;10328553;28;20068;-61
2022/04/14 19:35:13;;;;;;;27.90;17.73;;;;;;;10.41;48.34;98155.78;10329374;28;20057;-61
2022/04/14 19:40:12;;;;;;;27.63;19.88;;;;;;;10.37;48.69;98172.16;10328672;28;20479;-61
2022/04/14 19:45:11;;;;;;;25.05;14.05;;;;;;;10.23;48.80;98180.72;10329379;28;20053;-62
2022/04/14 19:50:11;;;;;;;26.45;17.48;;;;;;;10.09;49.55;98184.06;10329845;28;20142;-62
2022/04/14 19:55:12;;;;;;;44.05;29.80;;;;;;;9.90;51.11;98167.50;10328317;28;20071;-62
2022/04/14 20:00:12;;;;;;;41.92;26.98;;;;;;;9.74;51.66;98155.28;10328824;28;20065;-62
2022/04/14 20:05:12;;;;;;;39.10;22.58;;;;;;;9.78;51.76;98180.38;10329218;28;20061;-62
2022/04/14 20:10:11;;;;;;;39.28;22.50;;;;;;;9.44;54.35;98181.75;10328674;28;20061;-62
2022/04/14 20:15:10;;;;;;;68.82;44.47;;;;;;;9.17;56.76;98187.50;10333509;28;20057;-62
2022/04/14 20:20:10;;;;;;;46.70;31.20;;;;;;;9.08;56.36;98180.47;10336443;28;20026;-62
2022/04/14 20:25:09;;;;;;;;;;;;;;;9.07;55.85;98204.66;10336651;28;20064;-62
2022/04/14 20:30:09;;;;;;;28.85;18.95;;;;;;;8.96;56.47;98201.03;10335878;28;19971;-62
2022/04/14 20:35:10;;;;;;;27.52;18.58;;;;;;;8.89;55.90;98190.59;10329756;28;20060;-62
2022/04/14 20:40:10;;;;;;;26.30;16.23;;;;;;;8.44;55.90;98121.91;10335248;28;20505;-62
2022/04/14 20:45:10;;;;;;;22.60;16.10;;;;;;;8.68;55.64;98161.88;10335337;28;20087;-62
2022/04/14 20:50:09;;;;;;;21.55;14.65;;;;;;;8.69;55.71;98186.88;10334203;28;20061;-62
2022/04/14 20:55:09;;;;;;;41.05;20.60;;;;;;;8.70;56.34;98199.00;10335060;28;20073;-63
2022/04/14 21:00:08;;;;;;;44.53;23.58;;;;;;;8.38;56.19;98139.91;10334092;28;20073;-62
2022/04/14 21:05:08;;;;;;;89.10;45.55;;;;;;;8.38;57.93;98170.06;10334650;28;20416;-62
2022/04/14 21:10:07;;;;;;;;;;;;;;;8.57;57.97;98194.47;10335003;28;20070;-62
2022/04/14 21:15:07;;;;;;;55.83;26.55;;;;;;;8.51;58.49;98192.69;10334867;28;19956;-62
2022/04/14 21:20:07;;;;;;;47.17;24.45;;;;;;;8.32;57.93;98175.16;10334033;28;20546;-62
2022/04/14 21:25:06;;;;;;;23.35;13.27;;;;;;;7.90;58.09;98130.59;10333185;28;20071;-62
2022/04/14 21:30:06;;;;;;;22.42;11.55;;;;;;;8.26;58.04;98205.25;10334414;28;20053;-62
2022/04/14 21:35:05;;;;;;;15.38;9.93;;;;;;;8.18;58.34;98193.06;10333154;28;20065;-62
2022/04/14 21:40:05;;;;;;;21.42;9.35;;;;;;;7.80;58.10;98133.88;10333249;28;20060;-62
2022/04/14 21:50:22;;;;;;;28.92;17.02;;;;;;;7.55;60.23;98138.63;10333391;28;20073;-62
2022/04/14 21:55:21;;;;;;;24.80;14.63;;;;;;;7.17;60.04;98089.75;10333000;28;20483;-62
2022/04/14 22:05:45;;;;;;;22.05;14.27;;;;;;;7.52;61.45;98179.03;10313272;28;20069;-62
2022/04/14 22:10:44;;;;;;;36.63;20.13;;;;;;;7.43;62.35;98192.66;10330998;28;20069;-62
2022/04/14 22:15:44;;;;;;;42.40;28.58;;;;;;;7.37;62.73;98200.25;10331744;28;20414;-62
2022/04/14 22:20:43;;;;;;;;;;;;;;;7.36;62.97;98178.72;10332116;28;20079;-62
2022/04/14 22:25:43;;;;;;;34.47;23.33;;;;;;;7.24;63.56;98181.06;10331714;28;19956;-62
2022/04/14 22:30:42;;;;;;;21.08;14.43;;;;;;;7.03;65.03;98189.28;10331424;28;20296;-62
2022/04/14 22:35:42;;;;;;;21.88;14.63;;;;;;;6.92;65.20;98183.91;10331154;28;20068;-62
2022/04/14 22:40:41;;;;;;;21.75;14.25;;;;;;;6.90;65.04;98172.66;10330832;28;20065;-62
2022/04/14 22:45:40;;;;;;;21.05;13.90;;;;;;;6.85;64.83;98170.84;10330781;28;20100;-62
2022/04/14 22:50:39;;;;;;;18.00;12.60;;;;;;;6.78;65.25;98177.59;10331258;28;20045;-62
2022/04/14 22:55:39;;;;;;;19.25;13.02;;;;;;;6.34;65.37;98107.91;10330739;28;20065;-62
2022/04/14 23:00:38;;;;;;;18.45;13.25;;;;;;;6.20;65.92;98092.13;10329839;28;20511;-62
2022/04/14 23:05:37;;;;;;;18.55;13.55;;;;;;;6.32;66.60;98122.44;10330936;28;20533;-62
2022/04/14 23:10:37;;;;;;;18.48;13.63;;;;;;;6.04;66.46;98066.88;10330204;28;20494;-62
2022/04/14 23:15:36;;;;;;;19.73;13.07;;;;;;;6.48;66.65;98146.84;10329948;28;20068;-62
2022/04/14 23:20:36;;;;;;;20.95;13.32;;;;;;;6.50;66.08;98152.91;10330441;28;20590;-62
2022/04/14 23:25:35;;;;;;;21.98;13.75;;;;;;;6.50;66.68;98145.19;10329917;28;20463;-62
2022/04/14 23:30:34;;;;;;;20.38;14.35;;;;;;;6.45;66.67;98139.94;10329911;28;20434;-62